Time;durP1;ratioP1;P1;durP2;ratioP2;P2;SDS_P1;SDS_P2;PMS_P1;PMS_P2;Temp;Humidity;BMP_temperature;BMP_pressure;BME280_temperature;BME280_humidity;BME280_pressure;Samples;Min_cycle;Max_cycle;Signal;HPM_P1;HPM_P2
2021/08/02 00:00:06;;;;;;;2.67;1.80;;;;;;;18.19;53.36;100536.75;5106476;28;20032;-59
2021/08/02 00:02:53;;;;;;;2.53;1.40;;;;;;;18.18;53.47;100543.13;5106831;28;20047;-58
2021/08/02 00:05:21;;;;;;;5.20;1.20;;;;;;;18.18;53.30;100540.47;5104809;28;20168;-58
2021/08/02 00:08:00;;;;;;;2.53;1.30;;;;;;;18.17;53.35;100544.97;5107628;28;20031;-58
2021/08/02 00:10:34;;;;;;;1.58;1.20;;;;;;;18.16;53.38;100537.13;5108357;28;20027;-58
2021/08/02 00:13:13;;;;;;;1.85;1.30;;;;;;;18.16;53.23;100527.28;5105088;28;20241;-58
2021/08/02 00:15:39;;;;;;;2.42;1.08;;;;;;;18.17;53.35;100531.59;5107478;28;20028;-58
2021/08/02 00:18:06;;;;;;;1.67;1.23;;;;;;;18.15;53.21;100530.16;5092052;28;20028;-58
2021/08/02 00:20:34;;;;;;;2.33;1.00;;;;;;;18.15;53.26;100532.81;5103703;28;20040;-58
2021/08/02 00:23:03;;;;;;;2.17;1.13;;;;;;;18.14;53.10;100529.31;5090973;28;20040;-58
2021/08/02 00:25:29;;;;;;;1.63;1.02;;;;;;;18.15;53.13;100535.50;5106490;28;20036;-58
2021/08/02 00:27:55;;;;;;;1.88;0.93;;;;;;;18.14;53.10;100542.69;5110758;28;20414;-58
2021/08/02 00:30:24;;;;;;;1.83;1.00;;;;;;;18.15;53.19;100535.50;5092386;28;20089;-58
2021/08/02 00:32:51;;;;;;;2.20;1.00;;;;;;;18.14;53.15;100544.53;5111182;28;20390;-58
2021/08/02 00:35:16;;;;;;;1.27;0.93;;;;;;;18.12;52.63;100542.06;5111513;28;20084;-58
2021/08/02 00:38:02;;;;;;;2.08;1.17;;;;;;;18.13;52.76;100540.19;5100165;28;20441;-58
2021/08/02 00:41:08;;;;;;;1.35;0.80;;;;;;;18.12;52.92;100541.22;5090912;28;20556;-58
2021/08/02 00:43:40;;;;;;;2.15;0.80;;;;;;;18.12;52.93;100543.91;5094420;28;20189;-58
2021/08/02 00:46:08;;;;;;;1.33;0.80;;;;;;;18.09;53.09;100540.56;5076590;28;20040;-58
2021/08/02 00:48:43;;;;;;;1.15;0.98;;;;;;;18.09;53.04;100550.44;5094362;28;20119;-58
2021/08/02 00:51:11;;;;;;;0.73;0.68;;;;;;;18.09;52.94;100542.41;5076262;28;20032;-58
2021/08/02 00:53:38;;;;;;;1.05;0.77;;;;;;;18.08;52.84;100549.59;5095331;28;20378;-58
2021/08/02 00:56:04;;;;;;;1.23;0.68;;;;;;;18.07;52.97;100547.97;5095934;28;20030;-58
2021/08/02 00:58:33;;;;;;;0.75;0.70;;;;;;;18.07;52.88;100550.63;5092843;28;20066;-58
2021/08/02 01:01:02;;;;;;;1.27;0.70;;;;;;;18.07;52.91;100544.44;5094156;28;20402;-58
2021/08/02 01:03:30;;;;;;;1.13;1.02;;;;;;;18.06;52.65;100548.16;5094069;28;20126;-58
2021/08/02 01:05:58;;;;;;;1.15;0.70;;;;;;;18.06;52.87;100548.16;5094099;28;20028;-59
2021/08/02 01:08:28;;;;;;;1.70;0.80;;;;;;;18.05;52.67;100554.50;5092713;28;20620;-58
2021/08/02 01:10:56;;;;;;;3.13;0.70;;;;;;;18.05;52.68;100549.16;5113276;28;20471;-59
2021/08/02 01:13:27;;;;;;;1.25;0.88;;;;;;;18.04;52.69;100556.38;5078161;28;20036;-58
2021/08/02 01:15:54;;;;;;;0.80;0.70;;;;;;;18.03;52.78;100557.38;5113041;28;20036;-58
2021/08/02 01:18:25;;;;;;;2.25;0.60;;;;;;;18.03;52.90;100557.38;5114559;28;20038;-58
2021/08/02 01:20:53;;;;;;;3.65;1.10;;;;;;;18.02;52.79;100555.72;5114484;28;20092;-59
2021/08/02 01:23:21;;;;;;;1.05;0.60;;;;;;;18.02;52.68;100561.06;5114048;28;20165;-58
2021/08/02 01:25:55;;;;;;;1.50;0.60;;;;;;;18.01;52.85;100548.72;5095950;28;20164;-59
2021/08/02 01:28:25;;;;;;;0.68;0.50;;;;;;;18.01;52.87;100545.22;5095716;28;20047;-58
2021/08/02 01:30:52;;;;;;;0.90;0.60;;;;;;;18.00;52.95;100551.59;5091578;28;20044;-58
2021/08/02 01:33:29;;;;;;;1.05;0.60;;;;;;;17.99;52.79;100553.44;5092275;28;20038;-58
2021/08/02 01:36:01;;;;;;;1.10;0.70;;;;;;;17.98;52.84;100560.63;5092473;28;20028;-59
2021/08/02 01:38:28;;;;;;;1.80;0.80;;;;;;;17.98;52.82;100552.59;5092321;28;20035;-58
2021/08/02 01:40:55;;;;;;;2.42;0.60;;;;;;;17.97;52.87;100545.59;5082652;28;20042;-59
2021/08/02 01:43:21;;;;;;;0.70;0.60;;;;;;;17.97;52.54;100547.44;5075353;28;20060;-58
2021/08/02 01:46:11;;;;;;;1.13;0.57;;;;;;;17.97;52.81;100550.13;5093297;28;20040;-58
2021/08/02 01:49:14;;;;;;;1.23;0.50;;;;;;;17.96;52.74;100543.13;5093237;28;20040;-58
2021/08/02 01:51:49;;;;;;;0.50;0.50;;;;;;;17.95;52.69;100539.59;5096252;28;20119;-58
2021/08/02 01:54:50;;;;;;;3.03;0.65;;;;;;;17.95;52.68;100531.59;5082645;28;20035;-58
2021/08/02 01:57:37;;;;;;;2.38;1.05;;;;;;;17.94;52.58;100537.13;5065890;28;20054;-58
2021/08/02 02:00:12;;;;;;;0.50;0.50;;;;;;;17.93;52.76;100533.59;5073683;28;20443;-58
2021/08/02 02:02:53;;;;;;;0.87;0.67;;;;;;;17.93;52.53;100535.47;5096191;28;20091;-59
2021/08/02 02:05:28;;;;;;;0.80;0.60;;;;;;;17.93;52.52;100535.47;5088385;28;20024;-58
2021/08/02 02:07:56;;;;;;;1.80;0.57;;;;;;;17.91;52.45;100538.34;5083253;28;20074;-58
2021/08/02 02:10:38;;;;;;;;;;;;;;;17.91;52.70;100540.19;5095714;28;20085;-59
2021/08/02 02:13:18;;;;;;;4.68;0.60;;;;;;;17.90;52.42;100539.34;5095763;28;19920;-58
2021/08/02 02:15:51;;;;;;;0.88;0.50;;;;;;;17.89;52.60;100536.84;5084179;28;20036;-59
2021/08/02 02:18:18;;;;;;;1.38;0.70;;;;;;;17.89;52.62;100531.50;5092243;28;20035;-58
2021/08/02 02:20:46;;;;;;;1.08;0.60;;;;;;;17.88;52.65;100535.22;5086397;28;20125;-59
2021/08/02 02:23:13;;;;;;;1.05;0.60;;;;;;;17.87;52.63;100531.69;5092568;28;20035;-59
2021/08/02 02:25:42;;;;;;;1.10;0.73;;;;;;;17.86;52.57;100532.72;5057580;28;20043;-59
2021/08/02 02:28:17;;;;;;;0.60;0.60;;;;;;;17.84;52.37;100535.59;5092503;28;20036;-59
2021/08/02 02:30:44;;;;;;;0.50;0.50;;;;;;;17.84;52.25;100532.09;5092340;28;20123;-59
2021/08/02 02:33:15;;;;;;;2.80;0.63;;;;;;;17.83;52.46;100523.25;5074654;28;20032;-58
2021/08/02 02:35:42;;;;;;;1.10;0.68;;;;;;;17.83;52.33;100531.28;5074386;28;20032;-58
2021/08/02 02:38:11;;;;;;;2.65;0.65;;;;;;;17.81;52.41;100530.63;5103966;28;20028;-58
2021/08/02 02:40:38;;;;;;;1.80;0.70;;;;;;;17.81;52.45;100527.97;5112973;28;20222;-59
2021/08/02 02:43:06;;;;;;;1.13;0.70;;;;;;;17.80;52.23;100533.50;5111464;28;20028;-59
2021/08/02 02:45:35;;;;;;;1.08;0.60;;;;;;;17.79;52.37;100532.66;5094539;28;20035;-59
2021/08/02 02:48:04;;;;;;;0.63;0.50;;;;;;;17.79;52.20;100532.66;5094233;28;20047;-58
2021/08/02 02:50:33;;;;;;;0.70;0.60;;;;;;;17.78;52.24;100533.69;5077351;28;20039;-59
2021/08/02 02:53:01;;;;;;;0.75;0.55;;;;;;;17.78;52.06;100532.84;5112446;28;20046;-58
2021/08/02 02:55:29;;;;;;;2.55;0.70;;;;;;;17.78;52.21;100530.19;5112227;28;20046;-59
2021/08/02 02:57:57;;;;;;;0.95;0.50;;;;;;;17.75;52.53;100520.69;5111369;28;20035;-58
2021/08/02 03:00:24;;;;;;;0.68;0.63;;;;;;;17.75;52.43;100525.22;5111276;28;20386;-59
2021/08/02 03:02:54;;;;;;;3.13;0.70;;;;;;;17.75;52.36;100525.22;5094404;28;20406;-58
2021/08/02 03:05:23;;;;;;;1.33;0.70;;;;;;;17.73;52.23;100533.41;5093362;28;20098;-59
2021/08/02 03:07:51;;;;;;;1.02;0.60;;;;;;;17.73;52.34;100534.25;5077141;28;20051;-59
2021/08/02 03:10:21;;;;;;;0.73;0.50;;;;;;;17.71;52.17;100528.25;5112244;28;20046;-58
2021/08/02 03:12:48;;;;;;;1.08;0.50;;;;;;;17.70;52.56;100526.63;5078374;28;20035;-58
2021/08/02 03:15:14;;;;;;;2.30;0.77;;;;;;;17.70;51.94;100523.09;5091976;28;20059;-58
2021/08/02 03:17:40;;;;;;;0.90;0.60;;;;;;;17.69;52.03;100530.31;5091558;28;20119;-58
2021/08/02 03:20:07;;;;;;;0.50;0.50;;;;;;;17.69;52.26;100529.47;5091946;28;20087;-58
2021/08/02 03:23:04;;;;;;;2.05;0.60;;;;;;;17.68;52.18;100530.47;5091599;28;20028;-58
2021/08/02 03:25:36;;;;;;;1.40;0.60;;;;;;;17.67;52.10;100529.66;5090766;28;20047;-59
2021/08/02 03:28:25;;;;;;;0.77;0.55;;;;;;;17.67;51.82;100532.34;5091729;28;20455;-58
2021/08/02 03:30:55;;;;;;;0.95;0.60;;;;;;;17.65;52.16;100526.34;5091403;28;20371;-58
2021/08/02 03:33:26;;;;;;;1.02;0.55;;;;;;;17.65;52.00;100534.38;5091313;28;20039;-58
2021/08/02 03:35:56;;;;;;;0.40;0.40;;;;;;;17.65;52.24;100536.22;5091585;28;20028;-58
2021/08/02 03:38:23;;;;;;;1.38;0.60;;;;;;;17.63;52.37;100536.41;5091352;28;20060;-59
2021/08/02 03:40:50;;;;;;;0.90;0.60;;;;;;;17.63;52.40;100543.59;5073421;28;20050;-58
2021/08/02 03:43:17;;;;;;;1.25;0.85;;;;;;;17.63;52.38;100543.59;5082762;28;20042;-59
2021/08/02 03:45:44;;;;;;;1.15;0.70;;;;;;;17.61;52.18;100546.47;5111572;28;20035;-59
2021/08/02 03:48:10;;;;;;;0.90;0.57;;;;;;;17.61;52.12;100541.13;5111581;28;20051;-59
2021/08/02 03:50:37;;;;;;;1.63;0.80;;;;;;;17.60;52.11;100544.78;5111625;28;20438;-58
2021/08/02 03:53:03;;;;;;;1.20;0.60;;;;;;;17.59;52.05;100538.63;5111500;28;20028;-58
2021/08/02 03:55:32;;;;;;;0.70;0.70;;;;;;;17.60;52.22;100547.47;5111511;28;20043;-58
2021/08/02 03:57:58;;;;;;;0.88;0.75;;;;;;;17.58;52.05;100544.16;5093461;28;20028;-59
2021/08/02 04:00:24;;;;;;;0.98;0.50;;;;;;;17.58;52.01;100538.81;5111457;28;20039;-59
2021/08/02 04:02:51;;;;;;;2.63;0.52;;;;;;;17.57;52.07;100542.50;5090551;28;20039;-59
2021/08/02 04:05:18;;;;;;;1.40;0.70;;;;;;;17.56;52.05;100541.69;5092624;28;20035;-58
2021/08/02 04:07:44;;;;;;;1.02;0.60;;;;;;;17.55;52.28;100534.66;5106947;28;20032;-58
2021/08/02 04:10:13;;;;;;;2.72;0.70;;;;;;;17.54;52.37;100530.34;5090943;28;20046;-58
2021/08/02 04:12:38;;;;;;;2.58;0.80;;;;;;;17.54;52.44;100537.53;5093156;28;20063;-58
2021/08/02 04:15:07;;;;;;;0.68;0.60;;;;;;;17.54;52.24;100542.88;5111357;28;20031;-59
2021/08/02 04:17:33;;;;;;;1.27;0.50;;;;;;;17.53;52.06;100547.41;5113473;28;20047;-59
2021/08/02 04:19:58;;;;;;;2.17;0.60;;;;;;;17.53;52.38;100546.56;5115599;28;20402;-58
2021/08/02 04:22:24;;;;;;;0.98;0.68;;;;;;;17.52;52.10;100544.94;5094966;28;20054;-59
2021/08/02 04:24:50;;;;;;;0.68;0.50;;;;;;;17.52;52.39;100555.63;5095130;28;20033;-58
2021/08/02 04:27:15;;;;;;;0.50;0.50;;;;;;;17.51;52.24;100551.28;5094904;28;20032;-59
2021/08/02 04:29:41;;;;;;;0.50;0.50;;;;;;;17.51;52.27;100549.44;5094879;28;20450;-59
2021/08/02 04:32:07;;;;;;;1.48;0.60;;;;;;;17.49;52.34;100540.75;5095069;28;20028;-58
2021/08/02 04:34:32;;;;;;;1.30;0.60;;;;;;;17.48;52.33;100550.66;5094701;28;20036;-58
2021/08/02 04:36:59;;;;;;;0.93;0.60;;;;;;;17.47;52.07;100548.97;5094861;28;20035;-59
2021/08/02 04:39:25;;;;;;;0.98;0.70;;;;;;;17.47;52.34;100550.84;5114710;28;20028;-59
2021/08/02 04:41:50;;;;;;;1.90;0.60;;;;;;;17.47;52.05;100550.84;5114981;28;20084;-59
2021/08/02 04:44:16;;;;;;;1.92;1.13;;;;;;;17.46;52.30;100541.97;5115287;28;20085;-59
2021/08/02 04:46:42;;;;;;;1.30;0.70;;;;;;;17.46;52.35;100541.16;5114883;28;20378;-59
2021/08/02 04:49:07;;;;;;;2.75;0.70;;;;;;;17.45;52.15;100540.34;5096661;28;20249;-58
2021/08/02 04:51:33;;;;;;;0.55;0.55;;;;;;;17.44;52.41;100541.34;5114849;28;20436;-59
2021/08/02 04:53:59;;;;;;;0.60;0.60;;;;;;;17.43;52.24;100542.34;5114817;28;20107;-59
2021/08/02 04:56:25;;;;;;;1.67;0.47;;;;;;;17.43;52.32;100542.34;5114652;28;20092;-59
2021/08/02 04:58:50;;;;;;;1.48;0.50;;;;;;;17.43;52.26;100537.00;5096644;28;20450;-58
2021/08/02 05:01:16;;;;;;;0.80;0.60;;;;;;;17.41;51.79;100539.03;5114560;28;20028;-59
2021/08/02 05:03:42;;;;;;;0.70;0.60;;;;;;;17.41;52.20;100540.88;5114584;28;20115;-58
2021/08/02 05:06:07;;;;;;;1.38;0.80;;;;;;;17.40;52.01;100548.06;5114584;28;20035;-59
2021/08/02 05:08:33;;;;;;;1.42;0.60;;;;;;;17.39;52.60;100543.72;5114433;28;20225;-58
2021/08/02 05:10:59;;;;;;;1.73;0.88;;;;;;;17.39;52.52;100542.91;5114749;28;20030;-58
2021/08/02 05:13:24;;;;;;;0.80;0.57;;;;;;;17.39;52.36;100548.25;5095350;28;20394;-58
2021/08/02 05:15:50;;;;;;;0.60;0.60;;;;;;;17.37;52.44;100543.09;5094039;28;20031;-58
2021/08/02 05:18:16;;;;;;;1.50;0.70;;;;;;;17.36;52.39;100538.75;5093956;28;20040;-59
2021/08/02 05:20:42;;;;;;;0.63;0.60;;;;;;;17.36;52.42;100538.75;5094164;28;20067;-58
2021/08/02 05:23:08;;;;;;;0.80;0.65;;;;;;;17.35;52.33;100540.63;5093892;28;20032;-58
2021/08/02 05:25:34;;;;;;;0.80;0.70;;;;;;;17.36;52.38;100544.09;5092860;28;20042;-58
2021/08/02 05:28:00;;;;;;;1.00;0.60;;;;;;;17.34;52.54;100538.94;5093320;28;20036;-58
2021/08/02 05:30:26;;;;;;;1.10;0.68;;;;;;;17.34;52.46;100541.63;5093463;28;20046;-58
2021/08/02 05:32:52;;;;;;;3.90;0.70;;;;;;;17.34;52.41;100538.13;5093656;28;20034;-58
2021/08/02 05:35:18;;;;;;;0.80;0.70;;;;;;;17.33;52.01;100533.78;5093579;28;20040;-58
2021/08/02 05:37:44;;;;;;;1.17;0.40;;;;;;;17.32;52.08;100533.00;5093632;28;20035;-58
2021/08/02 05:40:10;;;;;;;0.60;0.60;;;;;;;17.31;52.34;100536.66;5093474;28;20031;-59
2021/08/02 05:42:36;;;;;;;1.42;0.88;;;;;;;17.31;52.32;100535.84;5093534;28;20107;-58
2021/08/02 05:45:04;;;;;;;0.60;0.60;;;;;;;17.30;52.25;100532.34;5093520;28;20147;-58
2021/08/02 05:47:30;;;;;;;1.85;0.75;;;;;;;17.30;52.41;100537.69;5092151;28;20040;-58
2021/08/02 05:49:55;;;;;;;1.05;0.77;;;;;;;17.29;52.36;100535.19;5093314;28;20085;-59
2021/08/02 05:52:21;;;;;;;1.00;0.90;;;;;;;17.29;52.26;100545.88;5093216;28;20024;-58
2021/08/02 05:54:47;;;;;;;0.93;0.73;;;;;;;17.29;52.51;100537.88;5093220;28;20036;-58
2021/08/02 05:57:18;;;;;;;2.00;0.68;;;;;;;17.28;52.43;100541.56;5093508;28;20310;-59
2021/08/02 05:59:44;;;;;;;1.02;0.73;;;;;;;17.28;52.61;100536.22;5093216;28;20032;-58
2021/08/02 06:02:09;;;;;;;2.05;0.70;;;;;;;17.27;52.31;100532.72;5091981;28;20036;-58
2021/08/02 06:04:35;;;;;;;1.30;0.90;;;;;;;17.27;52.48;100531.88;5093035;28;20051;-58
2021/08/02 06:07:01;;;;;;;1.08;0.77;;;;;;;17.27;52.47;100535.38;5091721;28;20028;-59
2021/08/02 06:09:27;;;;;;;5.78;2.00;;;;;;;17.27;52.51;100534.53;5092933;28;20028;-58
2021/08/02 06:11:52;;;;;;;1.45;0.65;;;;;;;17.26;52.78;100543.59;5098713;28;20031;-59
2021/08/02 06:14:18;;;;;;;1.10;0.98;;;;;;;17.26;52.66;100543.59;5113354;28;20039;-59
2021/08/02 06:16:44;;;;;;;2.17;0.93;;;;;;;17.24;52.67;100546.44;5113212;28;20363;-58
2021/08/02 06:19:09;;;;;;;0.85;0.70;;;;;;;17.24;52.65;100541.09;5112997;28;20040;-59
2021/08/02 06:21:35;;;;;;;1.85;0.80;;;;;;;17.25;52.76;100541.94;5113521;28;20063;-59
2021/08/02 06:24:01;;;;;;;1.67;0.70;;;;;;;17.24;53.02;100546.44;5112999;28;20035;-59
2021/08/02 06:26:27;;;;;;;1.02;0.70;;;;;;;17.23;52.50;100534.09;5113276;28;20481;-59
2021/08/02 06:28:52;;;;;;;1.55;0.90;;;;;;;17.22;52.69;100530.59;5112843;28;20039;-58
2021/08/02 06:31:18;;;;;;;1.70;0.80;;;;;;;17.22;52.84;100529.75;5112954;28;20413;-58
2021/08/02 06:33:45;;;;;;;1.35;0.80;;;;;;;17.22;52.83;100538.63;5094658;28;20028;-58
2021/08/02 06:36:11;;;;;;;1.45;0.70;;;;;;;17.22;52.74;100535.09;5112723;28;20042;-58
2021/08/02 06:38:37;;;;;;;0.77;0.77;;;;;;;17.20;52.73;100537.97;5112249;28;20032;-59
2021/08/02 06:41:03;;;;;;;1.63;0.75;;;;;;;17.21;52.90;100536.13;5112637;28;20111;-59
2021/08/02 06:43:30;;;;;;;2.05;0.88;;;;;;;17.20;52.90;100539.81;5112523;28;20477;-59
2021/08/02 06:45:55;;;;;;;0.80;0.65;;;;;;;17.20;53.32;100545.16;5112894;28;20098;-59
2021/08/02 06:48:22;;;;;;;1.83;0.75;;;;;;;17.20;53.47;100532.63;5112581;28;20028;-59
2021/08/02 06:50:48;;;;;;;1.63;0.80;;;;;;;17.21;53.42;100528.94;5112519;28;20139;-58
2021/08/02 06:53:14;;;;;;;4.65;0.80;;;;;;;17.19;53.74;100525.63;5112639;28;20062;-59
2021/08/02 06:55:40;;;;;;;3.53;0.85;;;;;;;17.20;53.82;100523.81;5112468;28;20028;-59
2021/08/02 06:58:06;;;;;;;0.98;0.70;;;;;;;17.19;53.89;100509.59;5112629;28;20046;-59
2021/08/02 07:00:34;;;;;;;1.17;0.68;;;;;;;17.18;53.69;100510.63;5112298;28;20059;-59
2021/08/02 07:02:59;;;;;;;1.15;0.90;;;;;;;17.18;53.84;100512.47;5094374;28;20031;-59
2021/08/02 07:05:27;;;;;;;1.48;0.70;;;;;;;17.18;54.02;100523.16;5112231;28;20054;-59
2021/08/02 07:07:53;;;;;;;0.75;0.70;;;;;;;17.18;54.21;100524.00;5112187;28;20043;-58
2021/08/02 07:10:20;;;;;;;1.88;0.60;;;;;;;17.17;54.22;100524.97;5112111;28;20114;-58
2021/08/02 07:12:45;;;;;;;3.13;0.90;;;;;;;17.18;54.36;100525.81;5112008;28;20113;-58
2021/08/02 07:15:11;;;;;;;1.20;0.70;;;;;;;17.17;54.35;100516.97;5111382;28;20074;-57
2021/08/02 07:17:37;;;;;;;1.65;0.70;;;;;;;17.17;54.43;100508.97;5109994;28;20035;-57
2021/08/02 07:20:03;;;;;;;1.08;0.60;;;;;;;17.17;54.43;100502.81;5082152;28;20071;-57
2021/08/02 07:22:29;;;;;;;2.10;0.98;;;;;;;17.17;54.34;100506.28;5091501;28;20028;-58
2021/08/02 07:24:55;;;;;;;0.90;0.80;;;;;;;17.17;54.25;100505.47;5095455;28;20031;-58
2021/08/02 07:27:20;;;;;;;0.95;0.60;;;;;;;17.16;54.25;100506.47;5111690;28;20028;-57
2021/08/02 07:29:46;;;;;;;3.35;0.95;;;;;;;17.17;54.45;100511.63;5111684;28;20036;-57
2021/08/02 07:32:12;;;;;;;3.05;0.80;;;;;;;17.17;54.28;100508.16;5111518;28;20466;-57
2021/08/02 07:34:37;;;;;;;0.95;0.40;;;;;;;17.15;54.37;100500.31;5109317;28;20474;-58
2021/08/02 07:37:03;;;;;;;1.73;0.70;;;;;;;17.16;54.26;100501.97;5110203;28;20035;-58
2021/08/02 07:39:30;;;;;;;1.92;0.82;;;;;;;17.16;54.45;100493.97;5111455;28;20486;-58
2021/08/02 07:41:56;;;;;;;1.15;0.50;;;;;;;17.17;54.57;100494.78;5111528;28;20478;-58
2021/08/02 07:44:22;;;;;;;1.50;0.70;;;;;;;17.17;54.64;100498.28;5110996;28;20040;-58
2021/08/02 07:46:48;;;;;;;0.60;0.60;;;;;;;17.17;54.81;100502.81;5111261;28;20039;-57
2021/08/02 07:49:14;;;;;;;4.53;1.00;;;;;;;17.16;54.77;100503.81;5111278;28;20069;-58
2021/08/02 07:51:40;;;;;;;1.08;0.73;;;;;;;17.16;54.66;100501.97;5110637;28;20036;-58
2021/08/02 07:54:06;;;;;;;5.80;0.95;;;;;;;17.16;54.83;100504.63;5111306;28;20088;-57
2021/08/02 07:56:33;;;;;;;0.85;0.73;;;;;;;17.17;54.94;100503.63;5092504;28;20036;-57
2021/08/02 07:59:00;;;;;;;0.65;0.60;;;;;;;17.16;54.81;100498.47;5093469;28;20028;-58
2021/08/02 08:01:25;;;;;;;1.02;0.60;;;;;;;17.17;54.92;100502.81;5111324;28;20040;-58
2021/08/02 08:03:51;;;;;;;0.68;0.65;;;;;;;17.16;55.13;100501.13;5107086;28;20031;-60
2021/08/02 08:06:17;;;;;;;1.55;0.70;;;;;;;17.17;55.30;100508.97;5103531;28;20042;-60
2021/08/02 08:08:42;;;;;;;4.47;1.63;;;;;;;17.17;55.28;100510.81;5096468;28;20355;-60
2021/08/02 08:11:09;;;;;;;2.72;0.88;;;;;;;17.17;55.35;100514.31;5091134;28;20036;-60
2021/08/02 08:13:39;;;;;;;1.75;1.05;;;;;;;17.18;55.35;100517.81;5111254;28;20363;-60
2021/08/02 08:16:05;;;;;;;1.30;0.65;;;;;;;17.18;55.43;100520.47;5105865;28;20402;-60
2021/08/02 08:18:31;;;;;;;1.52;0.80;;;;;;;17.17;55.45;100514.31;5110741;28;20040;-60
2021/08/02 08:20:59;;;;;;;1.25;0.90;;;;;;;17.17;55.64;100519.63;5100898;28;20056;-60
2021/08/02 08:23:31;;;;;;;1.52;0.95;;;;;;;17.17;55.90;100522.31;5094543;28;20031;-61
2021/08/02 08:26:00;;;;;;;1.65;0.65;;;;;;;17.17;55.67;100522.31;5111360;28;20077;-60
2021/08/02 08:28:27;;;;;;;1.10;0.65;;;;;;;17.18;55.42;100529.31;5111165;28;20036;-61
2021/08/02 08:30:53;;;;;;;1.48;1.02;;;;;;;17.18;55.52;100529.31;5111215;28;20122;-60
2021/08/02 08:33:19;;;;;;;1.63;0.88;;;;;;;17.17;55.32;100527.66;5098948;28;20043;-60
2021/08/02 08:35:45;;;;;;;0.77;0.75;;;;;;;17.19;55.42;100519.44;5090837;28;20032;-60
2021/08/02 08:38:11;;;;;;;4.25;0.98;;;;;;;17.17;55.51;100530.31;5084106;28;20467;-60
2021/08/02 08:40:38;;;;;;;4.80;0.80;;;;;;;17.17;55.59;100533.00;5111094;28;20032;-60
2021/08/02 08:43:05;;;;;;;2.90;0.90;;;;;;;17.17;55.57;100535.66;5111342;28;20039;-60
2021/08/02 08:45:32;;;;;;;1.95;1.10;;;;;;;17.17;55.49;100522.31;5110753;28;20104;-60
2021/08/02 08:47:58;;;;;;;4.80;1.20;;;;;;;17.16;55.88;100518.00;5110641;28;20024;-60
2021/08/02 08:50:25;;;;;;;6.07;1.33;;;;;;;17.16;55.84;100530.50;5110674;28;20038;-60
2021/08/02 08:52:56;;;;;;;5.68;1.23;;;;;;;17.15;55.58;100529.69;5110499;28;20028;-60
2021/08/02 08:55:22;;;;;;;5.50;1.55;;;;;;;17.16;56.24;100525.16;5111046;28;20070;-60
2021/08/02 08:57:48;;;;;;;5.85;1.30;;;;;;;17.15;56.77;100521.69;5110942;28;20035;-60
2021/08/02 09:00:29;;;;;;;1.25;0.85;;;;;;;17.16;56.13;100522.50;5110517;28;20039;-60
2021/08/02 09:02:56;;;;;;;2.97;1.08;;;;;;;17.17;56.10;100518.84;5109127;28;20035;-60
2021/08/02 09:05:33;;;;;;;3.83;0.93;;;;;;;17.16;56.19;100511.81;5113628;28;20772;-60
2021/08/02 09:07:58;;;;;;;4.43;1.30;;;;;;;17.17;56.44;100508.16;5105603;28;20035;-60
2021/08/02 09:10:25;;;;;;;3.97;1.23;;;;;;;17.17;56.80;100508.97;5110952;28;20074;-60
2021/08/02 09:12:53;;;;;;;4.75;1.85;;;;;;;17.17;56.52;100500.94;5107134;28;20040;-60
2021/08/02 09:15:34;;;;;;;7.35;1.10;;;;;;;17.17;56.73;100500.94;5110862;28;20048;-60
2021/08/02 09:18:01;;;;;;;3.50;1.10;;;;;;;17.18;57.09;100502.63;5110510;28;20612;-60
2021/08/02 09:20:27;;;;;;;1.60;1.10;;;;;;;17.19;57.13;100506.94;5110580;28;20047;-60
2021/08/02 09:22:53;;;;;;;2.58;0.93;;;;;;;17.19;57.05;100522.13;5108953;28;20080;-60
2021/08/02 09:25:22;;;;;;;1.73;1.00;;;;;;;17.19;57.26;100516.78;5106076;28;20024;-60
2021/08/02 09:27:49;;;;;;;14.45;1.95;;;;;;;17.19;57.09;100517.63;5086400;28;20042;-60
2021/08/02 09:30:17;;;;;;;9.80;1.00;;;;;;;17.19;57.47;100514.94;5103688;28;20111;-59
2021/08/02 09:32:54;;;;;;;8.15;1.52;;;;;;;17.19;57.17;100514.94;5105716;28;20032;-60
2021/08/02 09:35:40;;;;;;;5.10;1.05;;;;;;;17.20;57.40;100515.78;5108700;28;20035;-60
2021/08/02 09:38:07;;;;;;;3.50;1.10;;;;;;;17.19;57.50;100520.28;5113086;28;20674;-60
2021/08/02 09:40:38;;;;;;;12.25;1.65;;;;;;;17.20;57.49;100515.78;5110491;28;20086;-60
2021/08/02 09:43:04;;;;;;;6.55;1.08;;;;;;;17.21;57.71;100517.44;5111478;28;20466;-60
2021/08/02 09:45:45;;;;;;;11.13;1.52;;;;;;;17.21;57.77;100517.44;5113583;28;20032;-60
2021/08/02 09:48:14;;;;;;;5.78;1.27;;;;;;;17.20;57.71;100511.25;5109483;28;20107;-60
2021/08/02 09:50:43;;;;;;;2.00;0.90;;;;;;;17.20;57.91;100511.25;5110603;28;20497;-59
2021/08/02 09:53:11;;;;;;;9.50;1.45;;;;;;;17.21;57.87;100515.59;5113198;28;20032;-59
2021/08/02 09:55:38;;;;;;;7.95;1.20;;;;;;;17.22;58.08;100511.06;5113198;28;20661;-60
2021/08/02 09:58:03;;;;;;;2.63;0.98;;;;;;;17.21;57.71;100507.59;5112722;28;20031;-60
2021/08/02 10:00:31;;;;;;;5.80;1.85;;;;;;;17.22;57.85;100511.91;5113050;28;20039;-60
2021/08/02 10:02:57;;;;;;;5.05;1.38;;;;;;;17.22;58.02;100516.41;5112227;28;20449;-60
2021/08/02 10:05:23;;;;;;;3.42;1.25;;;;;;;17.23;57.98;100518.09;5104132;28;20539;-59
2021/08/02 10:07:49;;;;;;;5.30;1.20;;;;;;;17.23;57.83;100518.09;5110393;28;20024;-59
2021/08/02 10:10:16;;;;;;;2.20;1.20;;;;;;;17.22;58.16;100522.59;5112800;28;20042;-60
2021/08/02 10:12:46;;;;;;;3.85;1.00;;;;;;;17.24;58.07;100511.72;5094124;28;20028;-60
2021/08/02 10:15:17;;;;;;;4.88;0.93;;;;;;;17.24;57.92;100517.06;5112367;28;20019;-60
2021/08/02 10:17:53;;;;;;;1.48;1.20;;;;;;;17.25;58.03;100517.91;5112744;28;20478;-58
2021/08/02 10:20:22;;;;;;;2.65;1.27;;;;;;;17.25;58.26;100517.91;5108693;28;20039;-60
2021/08/02 10:22:48;;;;;;;1.88;1.27;;;;;;;17.23;58.14;100513.56;5112566;28;20482;-60
2021/08/02 10:25:14;;;;;;;3.97;1.10;;;;;;;17.24;58.19;100514.38;5110137;28;20031;-60
2021/08/02 10:27:39;;;;;;;3.22;1.30;;;;;;;17.25;58.19;100509.88;5112554;28;20035;-60
2021/08/02 10:30:25;;;;;;;3.33;1.00;;;;;;;17.24;58.88;100511.72;5112925;28;20035;-60
2021/08/02 10:32:56;;;;;;;1.83;1.05;;;;;;;17.25;58.69;100518.72;5113021;28;20046;-59
2021/08/02 10:35:35;;;;;;;2.63;1.10;;;;;;;17.25;58.46;100517.91;5113183;28;20040;-59
2021/08/02 10:38:06;;;;;;;1.30;0.98;;;;;;;17.25;58.46;100517.91;5113052;28;20448;-60
2021/08/02 10:40:48;;;;;;;1.80;1.38;;;;;;;17.25;58.30;100524.03;5112747;28;20482;-59
2021/08/02 10:43:25;;;;;;;3.78;1.30;;;;;;;17.25;58.67;100520.56;5094540;28;20470;-59
2021/08/02 10:45:51;;;;;;;1.67;1.20;;;;;;;17.25;58.66;100524.03;5112753;28;20146;-59
2021/08/02 10:48:24;;;;;;;3.28;1.20;;;;;;;17.26;58.92;100528.41;5112388;28;20139;-60
2021/08/02 10:50:50;;;;;;;1.92;1.40;;;;;;;17.25;58.99;100539.25;5112237;28;20028;-59
2021/08/02 10:53:17;;;;;;;5.43;1.80;;;;;;;17.25;59.00;100537.41;5112433;28;20538;-59
2021/08/02 10:55:52;;;;;;;2.17;1.45;;;;;;;17.25;59.42;100525.91;5112495;28;20088;-60
2021/08/02 10:58:29;;;;;;;3.75;1.63;;;;;;;17.26;59.33;100532.91;5077512;28;20131;-60
2021/08/02 11:01:00;;;;;;;2.60;1.90;;;;;;;17.25;59.29;100532.06;5112171;28;20386;-60
2021/08/02 11:03:30;;;;;;;2.70;1.80;;;;;;;17.25;59.34;100537.41;5111897;28;20112;-56
2021/08/02 11:05:58;;;;;;;2.67;1.65;;;;;;;17.25;59.44;100539.25;5090562;28;20067;-56
2021/08/02 11:08:24;;;;;;;5.45;2.30;;;;;;;17.23;59.43;100534.91;5093994;28;20039;-56
2021/08/02 11:10:50;;;;;;;5.65;2.05;;;;;;;17.26;60.23;100535.56;5099351;28;20039;-56
2021/08/02 11:13:26;;;;;;;3.42;2.10;;;;;;;17.25;59.92;100539.25;5110863;28;20032;-57
2021/08/02 11:15:52;;;;;;;;;;;;;;;17.26;59.61;100535.56;5110671;28;20032;-58
2021/08/02 11:18:28;;;;;;;2.38;1.85;;;;;;;17.25;59.52;100533.94;5111749;28;19927;-57
2021/08/02 11:20:55;;;;;;;3.55;2.00;;;;;;;17.26;60.04;100539.06;5105740;28;20043;-57
2021/08/02 11:23:35;;;;;;;4.68;2.53;;;;;;;17.25;60.11;100550.75;5108450;28;20111;-58
2021/08/02 11:26:08;;;;;;;6.88;2.17;;;;;;;17.25;60.12;100544.59;5597516;22;20515;-58
2021/08/02 11:28:45;;;;;;;5.43;2.47;;;;;;;17.25;60.16;100541.94;5042103;28;20033;-58
2021/08/02 11:31:12;;;;;;;4.88;2.58;;;;;;;17.26;60.25;100544.41;5048942;28;20056;-58
2021/08/02 11:33:43;;;;;;;3.38;2.20;;;;;;;17.25;60.49;100545.41;5050954;28;20040;-56